sensor_id;sensor_type;location;lat;lon;timestamp;P1;durP1;ratioP1;P2;durP2;ratioP2
64297;SDS011;50639;53.270;7.956;2023-04-16T00:00:53;30.60;;;20.90;;
64297;SDS011;50639;53.270;7.956;2023-04-16T00:03:21;27.38;;;20.55;;
64297;SDS011;50639;53.270;7.956;2023-04-16T00:05:47;27.15;;;21.55;;
64297;SDS011;50639;53.270;7.956;2023-04-16T00:08:13;30.17;;;23.15;;
64297;SDS011;50639;53.270;7.956;2023-04-16T00:10:38;26.10;;;20.58;;
64297;SDS011;50639;53.270;7.956;2023-04-16T00:13:04;28.75;;;22.02;;
64297;SDS011;50639;53.270;7.956;2023-04-16T00:15:29;25.85;;;18.77;;
64297;SDS011;50639;53.270;7.956;2023-04-16T00:17:55;24.42;;;19.33;;
64297;SDS011;50639;53.270;7.956;2023-04-16T00:20:23;29.40;;;20.55;;
64297;SDS011;50639;53.270;7.956;2023-04-16T00:22:49;25.65;;;18.98;;
64297;SDS011;50639;53.270;7.956;2023-04-16T00:25:15;24.88;;;19.27;;
64297;SDS011;50639;53.270;7.956;2023-04-16T00:27:40;26.83;;;19.38;;
64297;SDS011;50639;53.270;7.956;2023-04-16T00:30:06;26.27;;;18.95;;
64297;SDS011;50639;53.270;7.956;2023-04-16T00:32:32;25.80;;;19.67;;
64297;SDS011;50639;53.270;7.956;2023-04-16T00:35:00;30.83;;;21.60;;
64297;SDS011;50639;53.270;7.956;2023-04-16T00:37:26;22.25;;;17.77;;
64297;SDS011;50639;53.270;7.956;2023-04-16T00:39:51;25.20;;;18.92;;
64297;SDS011;50639;53.270;7.956;2023-04-16T00:42:17;27.55;;;20.40;;
64297;SDS011;50639;53.270;7.956;2023-04-16T00:44:42;29.98;;;21.75;;
64297;SDS011;50639;53.270;7.956;2023-04-16T00:47:08;27.20;;;20.65;;
64297;SDS011;50639;53.270;7.956;2023-04-16T00:49:33;31.52;;;19.17;;
64297;SDS011;50639;53.270;7.956;2023-04-16T00:52:00;24.65;;;18.52;;
64297;SDS011;50639;53.270;7.956;2023-04-16T00:54:27;25.53;;;19.77;;
64297;SDS011;50639;53.270;7.956;2023-04-16T00:56:53;29.52;;;18.80;;
64297;SDS011;50639;53.270;7.956;2023-04-16T00:59:18;27.25;;;19.40;;
64297;SDS011;50639;53.270;7.956;2023-04-16T01:01:48;27.65;;;20.20;;
64297;SDS011;50639;53.270;7.956;2023-04-16T01:04:14;28.00;;;20.70;;
64297;SDS011;50639;53.270;7.956;2023-04-16T01:06:41;25.02;;;19.13;;
64297;SDS011;50639;53.270;7.956;2023-04-16T01:09:06;23.05;;;17.27;;
64297;SDS011;50639;53.270;7.956;2023-04-16T01:11:32;23.15;;;18.60;;
64297;SDS011;50639;53.270;7.956;2023-04-16T01:13:58;29.67;;;21.27;;
64297;SDS011;50639;53.270;7.956;2023-04-16T01:16:23;29.15;;;19.85;;
64297;SDS011;50639;53.270;7.956;2023-04-16T01:18:50;25.05;;;20.27;;
64297;SDS011;50639;53.270;7.956;2023-04-16T01:21:16;30.08;;;19.58;;
64297;SDS011;50639;53.270;7.956;2023-04-16T01:23:41;27.27;;;19.45;;
64297;SDS011;50639;53.270;7.956;2023-04-16T01:26:07;29.30;;;21.55;;
64297;SDS011;50639;53.270;7.956;2023-04-16T01:28:32;28.85;;;21.33;;
64297;SDS011;50639;53.270;7.956;2023-04-16T01:30:58;26.38;;;20.80;;
64297;SDS011;50639;53.270;7.956;2023-04-16T01:33:34;26.70;;;17.98;;
64297;SDS011;50639;53.270;7.956;2023-04-16T01:36:00;29.50;;;22.05;;
64297;SDS011;50639;53.270;7.956;2023-04-16T01:38:25;26.05;;;19.88;;
64297;SDS011;50639;53.270;7.956;2023-04-16T01:40:54;25.95;;;20.10;;
64297;SDS011;50639;53.270;7.956;2023-04-16T01:43:25;26.00;;;19.70;;
64297;SDS011;50639;53.270;7.956;2023-04-16T01:45:51;23.65;;;18.95;;
64297;SDS011;50639;53.270;7.956;2023-04-16T01:49:03;25.48;;;18.45;;
64297;SDS011;50639;53.270;7.956;2023-04-16T01:51:54;29.02;;;21.70;;
64297;SDS011;50639;53.270;7.956;2023-04-16T01:54:21;30.30;;;20.10;;
64297;SDS011;50639;53.270;7.956;2023-04-16T01:56:46;29.42;;;21.42;;
64297;SDS011;50639;53.270;7.956;2023-04-16T01:59:12;25.35;;;20.52;;
64297;SDS011;50639;53.270;7.956;2023-04-16T02:04:06;27.77;;;19.83;;
64297;SDS011;50639;53.270;7.956;2023-04-16T02:06:32;24.77;;;18.75;;
64297;SDS011;50639;53.270;7.956;2023-04-16T02:08:57;27.80;;;18.58;;
64297;SDS011;50639;53.270;7.956;2023-04-16T02:11:24;30.50;;;20.15;;
64297;SDS011;50639;53.270;7.956;2023-04-16T02:13:54;23.27;;;16.80;;
64297;SDS011;50639;53.270;7.956;2023-04-16T02:16:24;29.45;;;20.38;;
64297;SDS011;50639;53.270;7.956;2023-04-16T02:19:13;23.50;;;18.45;;
64297;SDS011;50639;53.270;7.956;2023-04-16T02:21:40;24.52;;;19.27;;
64297;SDS011;50639;53.270;7.956;2023-04-16T02:24:06;24.98;;;20.30;;
64297;SDS011;50639;53.270;7.956;2023-04-16T02:26:33;23.70;;;19.35;;
64297;SDS011;50639;53.270;7.956;2023-04-16T02:29:04;23.80;;;18.15;;
64297;SDS011;50639;53.270;7.956;2023-04-16T02:31:37;23.95;;;19.10;;
64297;SDS011;50639;53.270;7.956;2023-04-16T02:34:27;37.17;;;22.35;;
64297;SDS011;50639;53.270;7.956;2023-04-16T02:36:56;34.77;;;22.97;;
64297;SDS011;50639;53.270;7.956;2023-04-16T02:39:22;27.10;;;19.75;;
64297;SDS011;50639;53.270;7.956;2023-04-16T02:41:48;26.45;;;19.90;;
64297;SDS011;50639;53.270;7.956;2023-04-16T02:44:13;29.23;;;20.38;;
64297;SDS011;50639;53.270;7.956;2023-04-16T02:46:38;22.67;;;19.65;;
64297;SDS011;50639;53.270;7.956;2023-04-16T02:49:04;24.20;;;18.95;;
64297;SDS011;50639;53.270;7.956;2023-04-16T02:51:29;28.13;;;21.48;;
64297;SDS011;50639;53.270;7.956;2023-04-16T02:53:55;23.15;;;18.95;;
64297;SDS011;50639;53.270;7.956;2023-04-16T02:56:20;25.23;;;18.42;;
64297;SDS011;50639;53.270;7.956;2023-04-16T02:58:45;28.33;;;19.58;;
64297;SDS011;50639;53.270;7.956;2023-04-16T03:01:11;34.28;;;22.88;;
64297;SDS011;50639;53.270;7.956;2023-04-16T03:03:36;28.38;;;19.05;;
64297;SDS011;50639;53.270;7.956;2023-04-16T03:06:05;34.88;;;22.80;;
64297;SDS011;50639;53.270;7.956;2023-04-16T03:08:30;32.22;;;24.17;;
64297;SDS011;50639;53.270;7.956;2023-04-16T03:10:55;31.15;;;19.60;;
64297;SDS011;50639;53.270;7.956;2023-04-16T03:13:21;31.48;;;17.92;;
64297;SDS011;50639;53.270;7.956;2023-04-16T03:15:47;27.77;;;21.80;;
64297;SDS011;50639;53.270;7.956;2023-04-16T03:18:13;25.38;;;19.90;;
64297;SDS011;50639;53.270;7.956;2023-04-16T03:20:39;25.23;;;19.65;;
64297;SDS011;50639;53.270;7.956;2023-04-16T03:23:05;31.13;;;21.73;;
64297;SDS011;50639;53.270;7.956;2023-04-16T03:25:30;24.60;;;19.23;;
64297;SDS011;50639;53.270;7.956;2023-04-16T03:27:55;24.75;;;18.77;;
64297;SDS011;50639;53.270;7.956;2023-04-16T03:30:21;23.25;;;17.98;;
64297;SDS011;50639;53.270;7.956;2023-04-16T03:32:47;24.33;;;19.60;;
64297;SDS011;50639;53.270;7.956;2023-04-16T03:35:15;25.33;;;19.42;;
64297;SDS011;50639;53.270;7.956;2023-04-16T03:37:44;25.83;;;19.33;;
64297;SDS011;50639;53.270;7.956;2023-04-16T03:40:12;25.35;;;18.13;;
64297;SDS011;50639;53.270;7.956;2023-04-16T03:42:38;20.77;;;17.85;;
64297;SDS011;50639;53.270;7.956;2023-04-16T03:45:04;24.33;;;17.60;;
64297;SDS011;50639;53.270;7.956;2023-04-16T03:47:33;26.08;;;18.65;;
64297;SDS011;50639;53.270;7.956;2023-04-16T03:50:01;25.30;;;20.55;;
64297;SDS011;50639;53.270;7.956;2023-04-16T03:52:27;26.48;;;19.27;;
64297;SDS011;50639;53.270;7.956;2023-04-16T03:54:53;25.13;;;17.45;;
64297;SDS011;50639;53.270;7.956;2023-04-16T03:57:24;23.60;;;16.38;;
64297;SDS011;50639;53.270;7.956;2023-04-16T03:59:56;25.85;;;18.25;;
64297;SDS011;50639;53.270;7.956;2023-04-16T04:02:26;29.38;;;19.52;;
64297;SDS011;50639;53.270;7.956;2023-04-16T04:04:51;24.52;;;19.67;;
64297;SDS011;50639;53.270;7.956;2023-04-16T04:07:17;23.08;;;18.38;;
64297;SDS011;50639;53.270;7.956;2023-04-16T04:09:42;25.42;;;18.08;;
64297;SDS011;50639;53.270;7.956;2023-04-16T04:12:11;27.65;;;19.05;;
64297;SDS011;50639;53.270;7.956;2023-04-16T04:14:45;25.17;;;19.48;;
64297;SDS011;50639;53.270;7.956;2023-04-16T04:17:14;27.00;;;19.00;;
64297;SDS011;50639;53.270;7.956;2023-04-16T04:19:39;29.85;;;19.60;;
64297;SDS011;50639;53.270;7.956;2023-04-16T04:22:06;26.37;;;19.30;;
64297;SDS011;50639;53.270;7.956;2023-04-16T04:24:31;22.92;;;17.40;;
64297;SDS011;50639;53.270;7.956;2023-04-16T04:27:00;28.40;;;18.35;;
64297;SDS011;50639;53.270;7.956;2023-04-16T04:29:29;24.50;;;18.60;;
64297;SDS011;50639;53.270;7.956;2023-04-16T04:31:55;22.60;;;17.17;;
64297;SDS011;50639;53.270;7.956;2023-04-16T04:34:21;22.10;;;16.90;;
64297;SDS011;50639;53.270;7.956;2023-04-16T04:36:47;25.83;;;19.60;;
64297;SDS011;50639;53.270;7.956;2023-04-16T04:39:14;24.33;;;17.92;;
64297;SDS011;50639;53.270;7.956;2023-04-16T04:41:42;25.17;;;19.13;;
64297;SDS011;50639;53.270;7.956;2023-04-16T04:44:07;22.60;;;18.70;;
64297;SDS011;50639;53.270;7.956;2023-04-16T04:46:33;22.70;;;17.70;;
64297;SDS011;50639;53.270;7.956;2023-04-16T04:48:58;25.25;;;19.50;;
64297;SDS011;50639;53.270;7.956;2023-04-16T04:51:23;24.77;;;19.65;;
64297;SDS011;50639;53.270;7.956;2023-04-16T04:53:49;24.27;;;16.23;;
64297;SDS011;50639;53.270;7.956;2023-04-16T04:56:17;22.83;;;17.13;;
64297;SDS011;50639;53.270;7.956;2023-04-16T04:58:42;25.80;;;19.27;;
64297;SDS011;50639;53.270;7.956;2023-04-16T05:01:08;22.63;;;17.65;;
64297;SDS011;50639;53.270;7.956;2023-04-16T05:03:33;23.55;;;16.80;;
64297;SDS011;50639;53.270;7.956;2023-04-16T05:05:59;24.73;;;19.00;;
64297;SDS011;50639;53.270;7.956;2023-04-16T05:08:24;23.38;;;16.25;;
64297;SDS011;50639;53.270;7.956;2023-04-16T05:10:50;23.58;;;16.30;;
64297;SDS011;50639;53.270;7.956;2023-04-16T05:15:43;26.20;;;15.43;;
64297;SDS011;50639;53.270;7.956;2023-04-16T05:18:09;21.17;;;17.67;;
64297;SDS011;50639;53.270;7.956;2023-04-16T05:20:38;22.67;;;18.15;;
64297;SDS011;50639;53.270;7.956;2023-04-16T05:23:03;24.02;;;15.80;;
64297;SDS011;50639;53.270;7.956;2023-04-16T05:25:28;22.10;;;16.42;;
64297;SDS011;50639;53.270;7.956;2023-04-16T05:27:53;23.00;;;17.70;;
64297;SDS011;50639;53.270;7.956;2023-04-16T05:30:19;26.60;;;18.60;;
64297;SDS011;50639;53.270;7.956;2023-04-16T05:32:44;21.58;;;16.88;;
64297;SDS011;50639;53.270;7.956;2023-04-16T05:35:10;27.13;;;17.35;;
64297;SDS011;50639;53.270;7.956;2023-04-16T05:37:35;21.13;;;15.13;;
64297;SDS011;50639;53.270;7.956;2023-04-16T05:40:01;27.67;;;18.58;;
64297;SDS011;50639;53.270;7.956;2023-04-16T05:42:26;24.02;;;18.23;;
64297;SDS011;50639;53.270;7.956;2023-04-16T05:44:52;22.30;;;18.20;;
64297;SDS011;50639;53.270;7.956;2023-04-16T05:47:17;24.05;;;18.27;;
64297;SDS011;50639;53.270;7.956;2023-04-16T05:49:43;24.23;;;19.15;;
64297;SDS011;50639;53.270;7.956;2023-04-16T05:52:08;21.75;;;16.98;;
64297;SDS011;50639;53.270;7.956;2023-04-16T05:54:34;22.67;;;17.35;;
64297;SDS011;50639;53.270;7.956;2023-04-16T05:57:02;22.02;;;17.20;;
64297;SDS011;50639;53.270;7.956;2023-04-16T05:59:28;24.27;;;18.48;;
64297;SDS011;50639;53.270;7.956;2023-04-16T06:01:54;22.23;;;16.47;;
64297;SDS011;50639;53.270;7.956;2023-04-16T06:04:20;25.15;;;16.70;;
64297;SDS011;50639;53.270;7.956;2023-04-16T06:06:49;22.90;;;16.67;;
64297;SDS011;50639;53.270;7.956;2023-04-16T06:09:17;22.85;;;16.45;;
64297;SDS011;50639;53.270;7.956;2023-04-16T06:11:43;21.90;;;16.80;;
64297;SDS011;50639;53.270;7.956;2023-04-16T06:14:09;21.77;;;16.27;;
64297;SDS011;50639;53.270;7.956;2023-04-16T06:16:34;22.30;;;17.40;;
64297;SDS011;50639;53.270;7.956;2023-04-16T06:19:00;23.23;;;16.30;;
64297;SDS011;50639;53.270;7.956;2023-04-16T06:21:25;22.33;;;17.50;;
64297;SDS011;50639;53.270;7.956;2023-04-16T06:23:51;27.55;;;18.02;;
64297;SDS011;50639;53.270;7.956;2023-04-16T06:26:16;22.52;;;16.42;;
64297;SDS011;50639;53.270;7.956;2023-04-16T06:28:42;21.25;;;16.00;;
64297;SDS011;50639;53.270;7.956;2023-04-16T06:31:07;22.65;;;16.00;;
64297;SDS011;50639;53.270;7.956;2023-04-16T06:33:33;20.63;;;16.33;;
64297;SDS011;50639;53.270;7.956;2023-04-16T06:35:59;22.48;;;16.98;;
64297;SDS011;50639;53.270;7.956;2023-04-16T06:38:24;22.80;;;16.05;;
64297;SDS011;50639;53.270;7.956;2023-04-16T06:40:49;22.48;;;16.42;;
64297;SDS011;50639;53.270;7.956;2023-04-16T06:43:15;20.17;;;15.35;;
64297;SDS011;50639;53.270;7.956;2023-04-16T06:45:42;20.90;;;16.63;;
64297;SDS011;50639;53.270;7.956;2023-04-16T06:48:10;20.40;;;16.48;;
64297;SDS011;50639;53.270;7.956;2023-04-16T06:50:36;20.98;;;15.00;;
64297;SDS011;50639;53.270;7.956;2023-04-16T06:53:01;21.13;;;14.68;;
64297;SDS011;50639;53.270;7.956;2023-04-16T06:55:27;25.05;;;16.63;;
64297;SDS011;50639;53.270;7.956;2023-04-16T06:57:53;21.27;;;16.60;;
64297;SDS011;50639;53.270;7.956;2023-04-16T07:00:18;20.08;;;15.65;;
64297;SDS011;50639;53.270;7.956;2023-04-16T07:02:43;25.55;;;16.80;;
64297;SDS011;50639;53.270;7.956;2023-04-16T07:05:09;21.92;;;16.30;;
64297;SDS011;50639;53.270;7.956;2023-04-16T07:07:34;23.58;;;15.68;;
64297;SDS011;50639;53.270;7.956;2023-04-16T07:10:00;20.70;;;15.60;;
64297;SDS011;50639;53.270;7.956;2023-04-16T07:12:25;19.15;;;15.00;;
64297;SDS011;50639;53.270;7.956;2023-04-16T07:14:51;21.98;;;15.40;;
64297;SDS011;50639;53.270;7.956;2023-04-16T07:17:17;20.15;;;14.95;;
64297;SDS011;50639;53.270;7.956;2023-04-16T07:19:42;20.98;;;15.07;;
64297;SDS011;50639;53.270;7.956;2023-04-16T07:22:08;21.20;;;14.48;;
64297;SDS011;50639;53.270;7.956;2023-04-16T07:24:33;22.55;;;14.30;;
64297;SDS011;50639;53.270;7.956;2023-04-16T07:27:00;22.58;;;14.43;;
64297;SDS011;50639;53.270;7.956;2023-04-16T07:29:25;21.27;;;15.90;;
64297;SDS011;50639;53.270;7.956;2023-04-16T07:31:50;22.73;;;15.88;;
64297;SDS011;50639;53.270;7.956;2023-04-16T07:34:16;20.27;;;15.10;;
64297;SDS011;50639;53.270;7.956;2023-04-16T07:36:41;20.05;;;16.20;;
64297;SDS011;50639;53.270;7.956;2023-04-16T07:39:07;19.10;;;14.73;;
64297;SDS011;50639;53.270;7.956;2023-04-16T07:41:32;19.85;;;14.65;;
64297;SDS011;50639;53.270;7.956;2023-04-16T07:43:58;19.63;;;13.38;;
64297;SDS011;50639;53.270;7.956;2023-04-16T07:46:24;19.48;;;13.43;;
64297;SDS011;50639;53.270;7.956;2023-04-16T07:48:49;24.73;;;15.02;;
64297;SDS011;50639;53.270;7.956;2023-04-16T07:51:17;21.80;;;14.32;;
64297;SDS011;50639;53.270;7.956;2023-04-16T07:53:43;18.98;;;12.93;;
64297;SDS011;50639;53.270;7.956;2023-04-16T07:56:08;18.23;;;13.85;;
64297;SDS011;50639;53.270;7.956;2023-04-16T07:58:33;19.27;;;14.23;;
64297;SDS011;50639;53.270;7.956;2023-04-16T08:00:59;18.13;;;13.15;;
64297;SDS011;50639;53.270;7.956;2023-04-16T08:03:25;18.77;;;14.23;;
64297;SDS011;50639;53.270;7.956;2023-04-16T08:05:51;19.25;;;13.80;;
64297;SDS011;50639;53.270;7.956;2023-04-16T08:08:19;23.80;;;14.90;;
64297;SDS011;50639;53.270;7.956;2023-04-16T08:10:45;19.40;;;14.00;;
64297;SDS011;50639;53.270;7.956;2023-04-16T08:13:11;18.15;;;12.73;;
64297;SDS011;50639;53.270;7.956;2023-04-16T08:15:36;17.63;;;13.18;;
64297;SDS011;50639;53.270;7.956;2023-04-16T08:18:02;19.02;;;13.65;;
64297;SDS011;50639;53.270;7.956;2023-04-16T08:22:55;22.48;;;14.32;;
64297;SDS011;50639;53.270;7.956;2023-04-16T08:25:20;18.73;;;12.48;;
64297;SDS011;50639;53.270;7.956;2023-04-16T08:27:48;18.08;;;13.52;;
64297;SDS011;50639;53.270;7.956;2023-04-16T08:30:14;20.85;;;13.57;;
64297;SDS011;50639;53.270;7.956;2023-04-16T08:32:41;18.40;;;13.88;;
64297;SDS011;50639;53.270;7.956;2023-04-16T08:35:07;17.92;;;13.10;;
64297;SDS011;50639;53.270;7.956;2023-04-16T08:37:33;17.05;;;12.55;;
64297;SDS011;50639;53.270;7.956;2023-04-16T08:40:02;19.17;;;14.38;;
64297;SDS011;50639;53.270;7.956;2023-04-16T08:42:30;19.70;;;13.23;;
64297;SDS011;50639;53.270;7.956;2023-04-16T08:47:52;19.92;;;13.68;;
64297;SDS011;50639;53.270;7.956;2023-04-16T08:50:21;16.70;;;12.90;;
64297;SDS011;50639;53.270;7.956;2023-04-16T08:52:52;21.50;;;12.73;;
64297;SDS011;50639;53.270;7.956;2023-04-16T08:55:29;18.60;;;12.73;;
64297;SDS011;50639;53.270;7.956;2023-04-16T08:58:00;17.75;;;13.57;;
64297;SDS011;50639;53.270;7.956;2023-04-16T09:00:28;20.25;;;13.30;;
64297;SDS011;50639;53.270;7.956;2023-04-16T09:02:56;18.15;;;12.85;;
64297;SDS011;50639;53.270;7.956;2023-04-16T09:05:21;18.50;;;12.43;;
64297;SDS011;50639;53.270;7.956;2023-04-16T09:07:49;16.85;;;13.43;;
64297;SDS011;50639;53.270;7.956;2023-04-16T09:10:17;20.00;;;13.52;;
64297;SDS011;50639;53.270;7.956;2023-04-16T09:12:43;21.95;;;13.60;;
64297;SDS011;50639;53.270;7.956;2023-04-16T09:15:10;17.70;;;13.02;;
64297;SDS011;50639;53.270;7.956;2023-04-16T09:17:37;21.45;;;13.20;;
64297;SDS011;50639;53.270;7.956;2023-04-16T09:20:04;16.60;;;11.48;;
64297;SDS011;50639;53.270;7.956;2023-04-16T09:22:33;20.33;;;13.77;;
64297;SDS011;50639;53.270;7.956;2023-04-16T09:25:01;19.05;;;13.15;;
64297;SDS011;50639;53.270;7.956;2023-04-16T09:27:27;18.88;;;12.75;;
64297;SDS011;50639;53.270;7.956;2023-04-16T09:29:54;18.67;;;13.25;;
64297;SDS011;50639;53.270;7.956;2023-04-16T09:32:23;18.88;;;13.45;;
64297;SDS011;50639;53.270;7.956;2023-04-16T09:34:57;14.95;;;12.43;;
64297;SDS011;50639;53.270;7.956;2023-04-16T09:37:27;20.00;;;14.93;;
64297;SDS011;50639;53.270;7.956;2023-04-16T09:39:59;19.88;;;14.90;;
64297;SDS011;50639;53.270;7.956;2023-04-16T09:42:27;19.35;;;14.27;;
64297;SDS011;50639;53.270;7.956;2023-04-16T09:44:55;16.80;;;12.75;;
64297;SDS011;50639;53.270;7.956;2023-04-16T09:47:21;20.05;;;14.23;;
64297;SDS011;50639;53.270;7.956;2023-04-16T09:49:47;17.85;;;13.52;;
64297;SDS011;50639;53.270;7.956;2023-04-16T09:54:48;16.38;;;12.70;;
64297;SDS011;50639;53.270;7.956;2023-04-16T09:57:19;19.58;;;14.68;;
64297;SDS011;50639;53.270;7.956;2023-04-16T09:59:45;17.60;;;13.57;;
64297;SDS011;50639;53.270;7.956;2023-04-16T10:02:11;17.45;;;13.88;;
64297;SDS011;50639;53.270;7.956;2023-04-16T10:04:46;22.38;;;14.27;;
64297;SDS011;50639;53.270;7.956;2023-04-16T10:07:13;19.70;;;14.55;;
64297;SDS011;50639;53.270;7.956;2023-04-16T10:09:39;20.23;;;14.57;;
64297;SDS011;50639;53.270;7.956;2023-04-16T10:12:05;20.27;;;14.05;;
64297;SDS011;50639;53.270;7.956;2023-04-16T10:14:31;24.35;;;14.52;;
64297;SDS011;50639;53.270;7.956;2023-04-16T10:16:58;18.80;;;13.45;;
64297;SDS011;50639;53.270;7.956;2023-04-16T10:19:25;18.85;;;13.50;;
64297;SDS011;50639;53.270;7.956;2023-04-16T10:21:51;17.52;;;13.60;;
64297;SDS011;50639;53.270;7.956;2023-04-16T10:24:17;15.65;;;11.73;;
64297;SDS011;50639;53.270;7.956;2023-04-16T10:26:43;19.27;;;13.43;;
64297;SDS011;50639;53.270;7.956;2023-04-16T10:29:10;18.67;;;12.48;;
64297;SDS011;50639;53.270;7.956;2023-04-16T10:31:36;20.13;;;11.95;;
64297;SDS011;50639;53.270;7.956;2023-04-16T10:34:03;18.65;;;12.63;;
64297;SDS011;50639;53.270;7.956;2023-04-16T10:36:35;14.60;;;12.07;;
64297;SDS011;50639;53.270;7.956;2023-04-16T10:39:01;18.75;;;12.10;;
64297;SDS011;50639;53.270;7.956;2023-04-16T10:41:27;19.10;;;12.65;;
64297;SDS011;50639;53.270;7.956;2023-04-16T10:43:52;16.55;;;12.10;;
64297;SDS011;50639;53.270;7.956;2023-04-16T10:48:59;17.55;;;12.45;;
64297;SDS011;50639;53.270;7.956;2023-04-16T10:51:27;15.70;;;11.35;;
64297;SDS011;50639;53.270;7.956;2023-04-16T10:53:54;15.73;;;11.95;;
64297;SDS011;50639;53.270;7.956;2023-04-16T10:56:24;16.20;;;11.55;;
64297;SDS011;50639;53.270;7.956;2023-04-16T10:58:53;16.13;;;11.68;;
64297;SDS011;50639;53.270;7.956;2023-04-16T11:01:25;15.32;;;10.68;;
64297;SDS011;50639;53.270;7.956;2023-04-16T11:03:54;18.88;;;10.93;;
64297;SDS011;50639;53.270;7.956;2023-04-16T11:06:23;17.42;;;11.65;;
64297;SDS011;50639;53.270;7.956;2023-04-16T11:08:50;19.92;;;10.80;;
64297;SDS011;50639;53.270;7.956;2023-04-16T11:11:19;14.93;;;11.13;;
64297;SDS011;50639;53.270;7.956;2023-04-16T11:13:46;17.25;;;10.52;;
64297;SDS011;50639;53.270;7.956;2023-04-16T11:16:15;14.32;;;10.77;;
64297;SDS011;50639;53.270;7.956;2023-04-16T11:18:41;18.83;;;10.77;;
64297;SDS011;50639;53.270;7.956;2023-04-16T11:21:10;17.25;;;10.50;;
64297;SDS011;50639;53.270;7.956;2023-04-16T11:23:46;15.10;;;10.85;;
64297;SDS011;50639;53.270;7.956;2023-04-16T11:26:26;15.38;;;11.52;;
64297;SDS011;50639;53.270;7.956;2023-04-16T11:28:53;15.35;;;11.48;;
64297;SDS011;50639;53.270;7.956;2023-04-16T11:33:45;17.55;;;10.95;;
64297;SDS011;50639;53.270;7.956;2023-04-16T11:36:11;16.35;;;11.20;;
64297;SDS011;50639;53.270;7.956;2023-04-16T11:38:37;18.77;;;11.73;;
64297;SDS011;50639;53.270;7.956;2023-04-16T11:41:05;13.85;;;10.27;;
64297;SDS011;50639;53.270;7.956;2023-04-16T11:43:31;13.43;;;9.70;;
64297;SDS011;50639;53.270;7.956;2023-04-16T11:51:13;13.60;;;9.20;;
64297;SDS011;50639;53.270;7.956;2023-04-16T11:53:49;12.13;;;9.90;;
64297;SDS011;50639;53.270;7.956;2023-04-16T11:56:24;17.30;;;10.18;;
64297;SDS011;50639;53.270;7.956;2023-04-16T12:01:37;15.48;;;9.73;;
64297;SDS011;50639;53.270;7.956;2023-04-16T12:04:04;14.90;;;9.60;;
64297;SDS011;50639;53.270;7.956;2023-04-16T12:06:30;16.88;;;11.13;;
64297;SDS011;50639;53.270;7.956;2023-04-16T12:08:58;13.18;;;9.73;;
64297;SDS011;50639;53.270;7.956;2023-04-16T12:11:37;13.83;;;10.63;;
64297;SDS011;50639;53.270;7.956;2023-04-16T12:14:10;13.35;;;9.75;;
64297;SDS011;50639;53.270;7.956;2023-04-16T12:16:36;15.85;;;10.48;;
64297;SDS011;50639;53.270;7.956;2023-04-16T12:19:02;15.48;;;10.80;;
64297;SDS011;50639;53.270;7.956;2023-04-16T12:21:41;13.73;;;11.40;;
64297;SDS011;50639;53.270;7.956;2023-04-16T12:24:11;17.63;;;11.25;;
64297;SDS011;50639;53.270;7.956;2023-04-16T12:26:42;14.25;;;10.30;;
64297;SDS011;50639;53.270;7.956;2023-04-16T12:31:44;17.42;;;11.07;;
64297;SDS011;50639;53.270;7.956;2023-04-16T12:34:23;22.50;;;10.25;;
64297;SDS011;50639;53.270;7.956;2023-04-16T12:39:35;13.05;;;10.48;;
64297;SDS011;50639;53.270;7.956;2023-04-16T12:42:00;14.98;;;11.77;;
64297;SDS011;50639;53.270;7.956;2023-04-16T12:44:27;14.05;;;11.40;;
64297;SDS011;50639;53.270;7.956;2023-04-16T12:46:53;15.45;;;11.25;;
64297;SDS011;50639;53.270;7.956;2023-04-16T12:49:19;14.15;;;10.85;;
64297;SDS011;50639;53.270;7.956;2023-04-16T12:51:45;15.30;;;11.32;;
64297;SDS011;50639;53.270;7.956;2023-04-16T12:54:11;13.70;;;11.18;;
64297;SDS011;50639;53.270;7.956;2023-04-16T12:56:36;17.63;;;11.65;;
64297;SDS011;50639;53.270;7.956;2023-04-16T12:59:02;15.73;;;11.20;;
64297;SDS011;50639;53.270;7.956;2023-04-16T13:01:27;14.18;;;10.27;;
64297;SDS011;50639;53.270;7.956;2023-04-16T13:03:53;15.18;;;9.95;;
64297;SDS011;50639;53.270;7.956;2023-04-16T13:06:18;13.18;;;9.57;;
64297;SDS011;50639;53.270;7.956;2023-04-16T13:08:44;13.65;;;10.13;;
64297;SDS011;50639;53.270;7.956;2023-04-16T13:11:10;14.57;;;10.32;;
64297;SDS011;50639;53.270;7.956;2023-04-16T13:13:36;12.70;;;9.23;;
64297;SDS011;50639;53.270;7.956;2023-04-16T13:16:02;11.93;;;8.98;;
64297;SDS011;50639;53.270;7.956;2023-04-16T13:18:33;16.67;;;11.02;;
64297;SDS011;50639;53.270;7.956;2023-04-16T13:21:00;14.43;;;11.20;;
64297;SDS011;50639;53.270;7.956;2023-04-16T13:23:28;13.25;;;9.77;;
64297;SDS011;50639;53.270;7.956;2023-04-16T13:25:54;16.23;;;11.38;;
64297;SDS011;50639;53.270;7.956;2023-04-16T13:28:20;12.95;;;8.68;;
64297;SDS011;50639;53.270;7.956;2023-04-16T13:30:46;16.33;;;9.48;;
64297;SDS011;50639;53.270;7.956;2023-04-16T13:33:14;17.35;;;11.68;;
64297;SDS011;50639;53.270;7.956;2023-04-16T13:35:40;14.38;;;11.18;;
64297;SDS011;50639;53.270;7.956;2023-04-16T13:38:06;13.40;;;10.10;;
64297;SDS011;50639;53.270;7.956;2023-04-16T13:40:35;21.20;;;13.05;;
64297;SDS011;50639;53.270;7.956;2023-04-16T13:43:03;14.40;;;10.07;;
64297;SDS011;50639;53.270;7.956;2023-04-16T13:45:28;11.90;;;8.30;;
64297;SDS011;50639;53.270;7.956;2023-04-16T13:47:56;16.25;;;10.50;;
64297;SDS011;50639;53.270;7.956;2023-04-16T13:50:22;14.63;;;10.23;;
64297;SDS011;50639;53.270;7.956;2023-04-16T13:52:48;19.02;;;11.50;;
64297;SDS011;50639;53.270;7.956;2023-04-16T13:55:15;11.73;;;8.98;;
64297;SDS011;50639;53.270;7.956;2023-04-16T13:57:46;13.68;;;9.02;;
64297;SDS011;50639;53.270;7.956;2023-04-16T14:00:12;11.95;;;8.68;;
64297;SDS011;50639;53.270;7.956;2023-04-16T14:02:40;12.32;;;7.97;;
64297;SDS011;50639;53.270;7.956;2023-04-16T14:05:06;13.93;;;9.07;;
64297;SDS011;50639;53.270;7.956;2023-04-16T14:07:32;13.68;;;8.50;;
64297;SDS011;50639;53.270;7.956;2023-04-16T14:09:57;11.93;;;8.02;;
64297;SDS011;50639;53.270;7.956;2023-04-16T14:12:23;15.02;;;9.10;;
64297;SDS011;50639;53.270;7.956;2023-04-16T14:14:49;25.30;;;12.95;;
64297;SDS011;50639;53.270;7.956;2023-04-16T14:17:14;11.50;;;8.57;;
64297;SDS011;50639;53.270;7.956;2023-04-16T14:19:40;12.40;;;8.23;;
64297;SDS011;50639;53.270;7.956;2023-04-16T14:22:06;12.70;;;7.47;;
64297;SDS011;50639;53.270;7.956;2023-04-16T14:24:32;11.07;;;8.15;;
64297;SDS011;50639;53.270;7.956;2023-04-16T14:26:57;11.77;;;7.35;;
64297;SDS011;50639;53.270;7.956;2023-04-16T14:29:23;11.63;;;8.00;;
64297;SDS011;50639;53.270;7.956;2023-04-16T14:31:48;13.40;;;9.30;;
64297;SDS011;50639;53.270;7.956;2023-04-16T14:34:14;14.48;;;7.95;;
64297;SDS011;50639;53.270;7.956;2023-04-16T14:36:40;14.23;;;9.05;;
64297;SDS011;50639;53.270;7.956;2023-04-16T14:39:06;14.95;;;8.95;;
64297;SDS011;50639;53.270;7.956;2023-04-16T14:41:33;14.13;;;8.30;;
64297;SDS011;50639;53.270;7.956;2023-04-16T14:43:58;11.02;;;8.07;;
64297;SDS011;50639;53.270;7.956;2023-04-16T14:46:24;12.48;;;8.07;;
64297;SDS011;50639;53.270;7.956;2023-04-16T14:48:51;12.30;;;8.40;;
64297;SDS011;50639;53.270;7.956;2023-04-16T14:51:18;12.52;;;9.13;;
64297;SDS011;50639;53.270;7.956;2023-04-16T14:53:43;13.30;;;10.32;;